createdAt,value
2023-03-15T00:05:35.198Z,2.63
2023-03-15T00:11:36.926Z,3.38
2023-03-15T00:17:38.640Z,2.10
2023-03-15T00:23:40.371Z,2.47
2023-03-15T00:29:42.060Z,2.92
2023-03-15T00:35:45.516Z,2.13
2023-03-15T00:41:47.402Z,3.20
2023-03-15T00:47:54.137Z,2.40
2023-03-15T00:53:56.630Z,2.50
2023-03-15T00:59:58.314Z,3.17
2023-03-15T01:06:14.071Z,2.15
2023-03-15T01:12:15.813Z,2.42
2023-03-15T01:18:17.661Z,2.28
2023-03-15T01:24:19.437Z,2.10
2023-03-15T01:30:23.691Z,2.78
2023-03-15T01:36:25.696Z,3.15
2023-03-15T01:42:28.152Z,3.50
2023-03-15T01:48:40.042Z,2.30
2023-03-15T01:54:54.539Z,2.05
2023-03-15T02:00:57.165Z,2.45
2023-03-15T02:07:02.483Z,2.30
2023-03-15T02:13:08.026Z,2.05
2023-03-15T02:19:25.796Z,1.95
2023-03-15T02:25:44.713Z,2.40
2023-03-15T02:31:46.542Z,2.08
2023-03-15T02:37:48.258Z,2.60
2023-03-15T02:43:58.831Z,2.03
2023-03-15T02:50:03.531Z,2.10
2023-03-15T02:56:06.528Z,2.15
2023-03-15T03:02:11.597Z,2.75
2023-03-15T03:08:16.672Z,2.30
2023-03-15T03:14:19.755Z,2.58
2023-03-15T03:20:21.542Z,2.83
2023-03-15T03:26:28.076Z,2.88
2023-03-15T03:32:30.342Z,2.58
2023-03-15T03:38:32.452Z,2.83
2023-03-15T03:44:38.147Z,3.35
2023-03-15T03:50:40.530Z,2.83
2023-03-15T03:56:42.433Z,3.13
2023-03-15T04:02:45.006Z,3.53
2023-03-15T04:08:49.767Z,3.95
2023-03-15T04:15:00.373Z,4.07
2023-03-15T04:21:10.904Z,4.63
2023-03-15T04:27:14.527Z,4.93
2023-03-15T04:33:46.689Z,6.68
2023-03-15T04:40:13.446Z,6.97
2023-03-15T04:46:28.671Z,6.55
2023-03-15T04:52:44.552Z,6.68
2023-03-15T04:59:15.547Z,5.38
2023-03-15T05:05:26.192Z,5.47
2023-03-15T05:11:48.198Z,5.85
2023-03-15T05:18:06.941Z,7.57
2023-03-15T05:24:25.886Z,7.25
2023-03-15T05:30:45.620Z,7.82
2023-03-15T05:37:07.820Z,6.85
2023-03-15T05:43:28.012Z,7.65
2023-03-15T05:49:45.387Z,8.27
2023-03-15T05:56:25.746Z,8.02
2023-03-15T06:02:47.998Z,8.05
2023-03-15T06:09:05.699Z,8.40
2023-03-15T06:15:08.722Z,9.15
2023-03-15T06:21:10.553Z,9.40
2023-03-15T06:27:13.033Z,10.57
2023-03-15T06:33:16.771Z,10.80
2023-03-15T06:39:18.926Z,12.60
2023-03-15T06:45:20.921Z,12.93
2023-03-15T06:51:23.803Z,12.75
2023-03-15T06:57:25.741Z,13.27
2023-03-15T07:03:30.439Z,13.48
2023-03-15T07:09:32.196Z,12.80
2023-03-15T07:15:37.075Z,13.85
2023-03-15T07:21:38.891Z,9.93
2023-03-15T07:27:40.640Z,9.15
2023-03-15T07:33:42.446Z,7.88
2023-03-15T07:39:46.799Z,7.30
2023-03-15T07:45:48.550Z,7.72
2023-03-15T07:51:51.218Z,7.22
2023-03-15T07:57:53.355Z,5.97
2023-03-15T08:03:55.193Z,5.75
2023-03-15T08:09:58.307Z,6.03
2023-03-15T08:16:00.022Z,6.43
2023-03-15T08:22:02.285Z,5.75
2023-03-15T08:28:04.097Z,4.60
2023-03-15T08:34:05.804Z,4.15
2023-03-15T08:40:12.203Z,4.35
2023-03-15T08:46:14.129Z,3.60
2023-03-15T08:52:18.031Z,4.03
2023-03-15T08:58:20.017Z,3.33
2023-03-15T09:04:21.943Z,3.10
2023-03-15T09:10:23.701Z,3.50
2023-03-15T09:16:25.761Z,3.70
2023-03-15T09:22:38.928Z,4.50
2023-03-15T09:28:41.461Z,4.13
2023-03-15T09:34:43.179Z,4.50
2023-03-15T09:40:46.217Z,5.88
2023-03-15T09:47:06.134Z,5.63
2023-03-15T09:53:18.955Z,5.25
2023-03-15T09:59:22.947Z,5.40
2023-03-15T10:05:34.645Z,5.85
2023-03-15T10:12:07.162Z,5.10
2023-03-15T10:18:35.616Z,5.28
2023-03-15T10:25:06.543Z,3.95
2023-03-15T10:31:29.438Z,3.45
2023-03-15T10:37:35.747Z,2.95
2023-03-15T10:43:39.737Z,2.95
2023-03-15T10:49:41.536Z,3.03
2023-03-15T10:55:47.384Z,2.60
2023-03-15T11:01:52.419Z,3.25
2023-03-15T11:07:59.539Z,3.30
2023-03-15T11:14:01.504Z,2.47
2023-03-15T11:20:30.494Z,2.47
2023-03-15T11:26:36.893Z,1.98
2023-03-15T11:32:39.369Z,1.65
2023-03-15T11:38:43.998Z,1.30
2023-03-15T11:44:49.691Z,1.17
2023-03-15T11:50:56.023Z,1.00
2023-03-15T11:57:03.344Z,0.90
2023-03-15T12:03:34.465Z,1.30
2023-03-15T12:09:36.392Z,1.10
2023-03-15T12:15:38.152Z,1.33
2023-03-15T12:21:52.072Z,1.20
2023-03-15T12:27:56.653Z,1.50
2023-03-15T12:34:00.955Z,2.40
2023-03-15T12:40:28.354Z,1.98
2023-03-15T12:46:39.083Z,2.00
2023-03-15T12:52:43.270Z,2.45
2023-03-15T12:58:48.657Z,1.88
2023-03-15T13:04:50.471Z,2.45
2023-03-15T13:11:11.706Z,2.30
2023-03-15T13:17:46.489Z,1.80
2023-03-15T13:23:52.591Z,4.53
2023-03-15T13:29:54.458Z,3.47
2023-03-15T13:36:01.182Z,5.18
2023-03-15T13:42:06.167Z,1.30
2023-03-15T13:48:08.079Z,1.45
2023-03-15T13:54:29.329Z,1.58
2023-03-15T14:00:34.106Z,1.40
2023-03-15T14:06:35.847Z,1.92
2023-03-15T14:12:37.771Z,1.92
2023-03-15T14:18:41.316Z,1.50
2023-03-15T14:24:46.653Z,1.17
2023-03-15T14:30:57.486Z,1.70
2023-03-15T14:37:04.260Z,1.52
2023-03-15T14:43:08.340Z,1.23
2023-03-15T14:49:23.577Z,1.65
2023-03-15T14:55:30.692Z,1.83
2023-03-15T15:01:33.062Z,1.88
2023-03-15T15:07:35.445Z,1.08
2023-03-15T15:13:39.076Z,1.05
2023-03-15T15:19:40.774Z,1.13
2023-03-15T15:25:43.326Z,1.38
2023-03-15T15:31:46.196Z,1.00
2023-03-15T15:37:50.273Z,1.00
2023-03-15T15:43:52.505Z,1.38
2023-03-15T15:49:54.328Z,1.25
2023-03-15T15:55:57.438Z,1.00
2023-03-15T16:02:01.788Z,1.65
2023-03-15T16:08:05.457Z,1.40
2023-03-15T16:14:09.807Z,1.92
2023-03-15T16:20:13.386Z,1.40
2023-03-15T16:26:17.039Z,1.73
2023-03-15T16:32:36.866Z,1.60
2023-03-15T16:38:45.205Z,1.33
2023-03-15T16:44:46.926Z,1.85
2023-03-15T16:50:49.165Z,1.15
2023-03-15T16:56:51.222Z,1.52
2023-03-15T17:02:54.008Z,1.73
2023-03-15T17:09:02.587Z,1.38
2023-03-15T17:15:05.359Z,2.05
2023-03-15T17:21:09.640Z,1.50
2023-03-15T17:27:22.483Z,1.38
2023-03-15T17:33:25.938Z,2.28
2023-03-15T17:39:28.069Z,2.42
2023-03-15T17:45:34.444Z,1.92
2023-03-15T17:51:37.547Z,1.73
2023-03-15T17:57:42.951Z,2.17
2023-03-15T18:03:49.028Z,2.90
2023-03-15T18:09:50.975Z,2.45
2023-03-15T18:15:52.986Z,2.17
2023-03-15T18:21:54.704Z,1.70
2023-03-15T18:27:56.420Z,1.50
2023-03-15T18:33:58.175Z,1.60
2023-03-15T18:39:59.946Z,1.70
2023-03-15T18:46:01.798Z,1.60
2023-03-15T18:52:03.890Z,1.73
2023-03-15T18:58:13.932Z,1.75
2023-03-15T19:04:17.024Z,1.40
2023-03-15T19:10:21.405Z,1.80
2023-03-15T19:16:24.173Z,1.85
2023-03-15T19:22:29.611Z,3.47
2023-03-15T19:28:31.856Z,9.38
2023-03-15T19:34:34.282Z,5.68
2023-03-15T19:40:37.284Z,6.35
2023-03-15T19:46:39.851Z,4.10
2023-03-15T19:52:49.990Z,3.38
2023-03-15T19:58:53.078Z,2.28
2023-03-15T20:04:55.619Z,2.38
2023-03-15T20:11:03.561Z,5.93
2023-03-15T20:17:06.117Z,10.75
2023-03-15T20:23:08.641Z,11.18
2023-03-15T20:29:27.134Z,4.43
2023-03-15T20:35:28.987Z,3.28
2023-03-15T20:41:30.918Z,30.15
2023-03-15T20:47:33.790Z,7.55
2023-03-15T20:53:36.848Z,3.55
2023-03-15T20:59:41.699Z,3.45
2023-03-15T21:05:46.273Z,3.90
2023-03-15T21:11:48.359Z,4.72
2023-03-15T21:17:50.315Z,4.32
2023-03-15T21:23:52.117Z,5.00
2023-03-15T21:29:54.393Z,4.78
2023-03-15T21:35:57.095Z,5.05
2023-03-15T21:41:58.921Z,5.25
2023-03-15T21:48:00.717Z,5.25
2023-03-15T21:54:02.912Z,5.32
2023-03-15T22:00:11.583Z,5.70
2023-03-15T22:06:16.813Z,5.60
2023-03-15T22:12:18.625Z,13.50
2023-03-15T22:18:20.719Z,12.93
2023-03-15T22:24:22.518Z,13.45
2023-03-15T22:30:25.260Z,13.32
2023-03-15T22:36:27.116Z,24.73
2023-03-15T22:42:28.884Z,24.83
2023-03-15T22:48:30.972Z,27.52
2023-03-15T22:54:32.706Z,22.90
2023-03-15T23:00:34.472Z,20.95
2023-03-15T23:06:36.341Z,13.00
2023-03-15T23:12:38.309Z,12.60
2023-03-15T23:19:29.120Z,11.18
2023-03-15T23:25:30.932Z,9.00
2023-03-15T23:31:32.744Z,6.28
2023-03-15T23:37:34.849Z,6.07
2023-03-15T23:43:36.679Z,12.10
2023-03-15T23:49:38.530Z,9.00
2023-03-15T23:55:40.425Z,8.52
